Time;durP1;ratioP1;P1;durP2;ratioP2;P2;SDS_P1;SDS_P2;PMS_P1;PMS_P2;Temp;Humidity;BMP_temperature;BMP_pressure;BME280_temperature;BME280_humidity;BME280_pressure;Samples;Min_cycle;Max_cycle;Signal;HPM_P1;HPM_P2
2024/01/27 00:00:18;;;;;;;15.35;2.85;;;;;;;;;;5067319;28;20024;-60
2024/01/27 00:02:44;;;;;;;10.70;2.25;;;;;;;;;;5069065;28;20159;-60
2024/01/27 00:05:10;;;;;;;7.43;2.63;;;;;;;;;;5073516;28;20052;-59
2024/01/27 00:07:37;;;;;;;12.65;2.15;;;;;;;;;;5072233;28;20039;-61
2024/01/27 00:10:03;;;;;;;14.13;2.22;;;;;;;;;;5072198;28;20040;-59
2024/01/27 00:12:29;;;;;;;15.43;2.80;;;;;;;;;;5065804;28;20178;-61
2024/01/27 00:14:55;;;;;;;17.13;2.30;;;;;;;;;;5060911;28;20067;-60
2024/01/27 00:17:24;;;;;;;18.05;3.22;;;;;;;;;;5066181;28;20489;-61
2024/01/27 00:19:50;;;;;;;13.13;2.65;;;;;;;;;;5056577;28;20024;-61
2024/01/27 00:22:16;;;;;;;15.60;2.75;;;;;;;;;;5072634;28;20031;-61
2024/01/27 00:24:43;;;;;;;16.23;2.55;;;;;;;;;;5073138;28;20031;-61
2024/01/27 00:27:08;;;;;;;12.38;2.30;;;;;;;;;;5059482;28;20028;-51
2024/01/27 00:29:34;;;;;;;22.20;3.30;;;;;;;;;;5067020;28;20036;-50
2024/01/27 00:32:00;;;;;;;10.15;2.47;;;;;;;;;;5072438;28;20066;-51
2024/01/27 00:34:26;;;;;;;21.67;3.08;;;;;;;;;;5054942;28;20025;-48
2024/01/27 00:36:52;;;;;;;23.60;2.22;;;;;;;;;;5070052;28;20032;-52
2024/01/27 00:39:18;;;;;;;19.08;2.80;;;;;;;;;;5054962;28;20028;-50
2024/01/27 00:41:45;;;;;;;15.90;3.30;;;;;;;;;;5065934;28;20124;-51
2024/01/27 00:44:11;;;;;;;24.50;3.95;;;;;;;;;;5072517;28;20025;-48
2024/01/27 00:46:40;;;;;;;22.75;2.95;;;;;;;;;;5059537;28;20035;-49
2024/01/27 00:49:06;;;;;;;16.27;2.83;;;;;;;;;;5072933;28;20029;-49
2024/01/27 00:51:32;;;;;;;14.60;2.80;;;;;;;;;;5069481;28;20021;-51
2024/01/27 00:53:58;;;;;;;12.30;2.10;;;;;;;;;;5066309;28;20021;-52
2024/01/27 00:56:24;;;;;;;17.80;2.63;;;;;;;;;;5057792;28;20481;-51
2024/01/27 00:58:50;;;;;;;15.18;2.13;;;;;;;;;;5072537;28;20074;-51
2024/01/27 01:01:16;;;;;;;17.67;2.78;;;;;;;;;;5071662;28;20033;-52
2024/01/27 01:03:42;;;;;;;13.77;3.47;;;;;;;;;;5070881;28;20024;-51
2024/01/27 01:06:08;;;;;;;17.35;2.30;;;;;;;;;;5072789;28;20016;-50
2024/01/27 01:08:34;;;;;;;20.88;3.00;;;;;;;;;;5066167;28;20024;-52
2024/01/27 01:11:00;;;;;;;20.27;2.90;;;;;;;;;;5050024;28;20397;-49
2024/01/27 01:13:26;;;;;;;15.48;2.53;;;;;;;;;;5054061;28;20372;-52
2024/01/27 01:15:52;;;;;;;17.25;4.05;;;;;;;;;;5065322;28;20455;-50
2024/01/27 01:18:18;;;;;;;14.25;3.10;;;;;;;;;;5071739;28;20078;-50
2024/01/27 01:20:44;;;;;;;14.43;2.25;;;;;;;;;;5059559;28;20035;-49
2024/01/27 01:23:10;;;;;;;23.40;2.58;;;;;;;;;;5069773;28;20025;-50
2024/01/27 01:25:36;;;;;;;19.27;2.42;;;;;;;;;;5062101;28;20025;-60
2024/01/27 01:28:03;;;;;;;24.20;2.55;;;;;;;;;;5069064;28;20036;-57
2024/01/27 01:30:29;;;;;;;15.68;2.60;;;;;;;;;;5056635;28;20028;-60
2024/01/27 01:32:55;;;;;;;20.48;2.78;;;;;;;;;;5070448;28;20394;-57
2024/01/27 01:35:21;;;;;;;18.67;3.10;;;;;;;;;;5053781;28;20363;-61
2024/01/27 01:37:48;;;;;;;26.52;2.97;;;;;;;;;;5071955;28;20032;-51
2024/01/27 01:40:15;;;;;;;23.15;2.72;;;;;;;;;;5067194;28;20053;-51
2024/01/27 01:42:41;;;;;;;15.77;3.03;;;;;;;;;;5061839;28;20067;-52
2024/01/27 01:45:08;;;;;;;21.42;3.35;;;;;;;;;;5068549;28;20032;-50
2024/01/27 01:47:34;;;;;;;12.80;2.80;;;;;;;;;;5067765;28;20053;-48
2024/01/27 01:50:00;;;;;;;28.50;4.15;;;;;;;;;;5068690;28;20572;-50
2024/01/27 01:52:26;;;;;;;14.95;2.58;;;;;;;;;;5069186;28;20036;-47
2024/01/27 01:54:52;;;;;;;19.65;2.80;;;;;;;;;;5070463;28;20486;-48
2024/01/27 01:57:18;;;;;;;17.52;2.67;;;;;;;;;;5060862;28;20031;-50
2024/01/27 01:59:44;;;;;;;19.05;3.42;;;;;;;;;;5068092;28;20025;-52
2024/01/27 02:02:10;;;;;;;19.35;3.45;;;;;;;;;;5071230;28;20032;-54
2024/01/27 02:04:40;;;;;;;15.38;2.70;;;;;;;;;;5069362;28;20029;-51
2024/01/27 02:07:06;;;;;;;10.85;2.72;;;;;;;;;;5070612;28;20099;-52
2024/01/27 02:09:32;;;;;;;16.25;3.13;;;;;;;;;;5069267;28;20032;-49
2024/01/27 02:11:58;;;;;;;12.57;2.85;;;;;;;;;;5069250;28;20016;-49
2024/01/27 02:14:25;;;;;;;18.52;2.85;;;;;;;;;;5070310;28;20506;-55
2024/01/27 02:16:51;;;;;;;18.35;2.35;;;;;;;;;;5071169;28;20029;-48
2024/01/27 02:19:17;;;;;;;27.48;3.28;;;;;;;;;;5075061;28;20021;-48
2024/01/27 02:21:43;;;;;;;18.17;2.40;;;;;;;;;;5068054;28;20020;-52
2024/01/27 02:24:10;;;;;;;15.07;3.58;;;;;;;;;;5077742;28;20075;-48
2024/01/27 02:26:36;;;;;;;30.83;3.80;;;;;;;;;;5067513;28;20368;-48
2024/01/27 02:29:02;;;;;;;17.45;3.30;;;;;;;;;;5052045;28;20026;-49
2024/01/27 02:31:28;;;;;;;14.07;2.28;;;;;;;;;;5058240;28;20532;-52
2024/01/27 02:33:53;;;;;;;13.00;2.50;;;;;;;;;;5077552;28;20036;-50
2024/01/27 02:36:19;;;;;;;25.30;3.28;;;;;;;;;;5060707;28;20025;-50
2024/01/27 02:38:45;;;;;;;16.35;2.45;;;;;;;;;;5076723;28;20037;-52
2024/01/27 02:41:11;;;;;;;14.45;2.95;;;;;;;;;;5063042;28;20450;-49
2024/01/27 02:43:37;;;;;;;14.85;3.05;;;;;;;;;;5068976;28;20031;-50
2024/01/27 02:46:06;;;;;;;20.05;2.47;;;;;;;;;;5078224;28;20534;-48
2024/01/27 02:48:32;;;;;;;14.70;2.67;;;;;;;;;;5071154;28;20032;-50
2024/01/27 02:50:58;;;;;;;24.35;2.67;;;;;;;;;;5070509;28;20040;-51
2024/01/27 02:53:24;;;;;;;15.20;2.83;;;;;;;;;;5075735;28;20036;-50
2024/01/27 02:55:51;;;;;;;21.80;3.10;;;;;;;;;;5077601;28;20036;-49
2024/01/27 02:58:17;;;;;;;22.27;3.47;;;;;;;;;;5078075;28;20425;-52
2024/01/27 03:00:43;;;;;;;15.75;3.33;;;;;;;;;;5074787;28;20035;-54
2024/01/27 03:03:09;;;;;;;16.00;2.53;;;;;;;;;;5077981;28;20032;-53
2024/01/27 03:05:35;;;;;;;19.52;3.20;;;;;;;;;;5077660;28;20025;-50
2024/01/27 03:08:01;;;;;;;17.80;3.63;;;;;;;;;;5076857;28;20043;-51
2024/01/27 03:10:27;;;;;;;16.25;2.47;;;;;;;;;;5077322;28;20028;-51
2024/01/27 03:12:53;;;;;;;18.58;2.53;;;;;;;;;;5077997;28;20036;-49
2024/01/27 03:15:19;;;;;;;23.85;3.35;;;;;;;;;;5066477;28;20494;-50
2024/01/27 03:17:45;;;;;;;19.42;2.63;;;;;;;;;;5069057;28;20031;-50
2024/01/27 03:20:11;;;;;;;22.98;2.85;;;;;;;;;;5077246;28;20021;-49
2024/01/27 03:22:37;;;;;;;18.98;2.92;;;;;;;;;;5048983;28;20043;-52
2024/01/27 03:25:03;;;;;;;13.30;2.80;;;;;;;;;;5077490;28;20025;-50
2024/01/27 03:27:30;;;;;;;10.80;2.35;;;;;;;;;;5077273;28;20131;-50
2024/01/27 03:29:59;;;;;;;13.57;2.00;;;;;;;;;;5076688;28;20527;-49
2024/01/27 03:32:25;;;;;;;20.90;3.28;;;;;;;;;;5072862;28;20032;-50
2024/01/27 03:34:51;;;;;;;18.30;2.88;;;;;;;;;;5074101;28;20027;-50
2024/01/27 03:37:17;;;;;;;19.77;2.95;;;;;;;;;;5074159;28;20036;-49
2024/01/27 03:39:43;;;;;;;14.88;2.30;;;;;;;;;;5064867;28;20028;-50
2024/01/27 03:42:09;;;;;;;19.30;2.80;;;;;;;;;;5054555;28;20052;-53
2024/01/27 03:44:35;;;;;;;24.42;4.57;;;;;;;;;;5054277;28;20029;-54
2024/01/27 03:47:01;;;;;;;18.95;2.67;;;;;;;;;;5054426;28;20509;-57
2024/01/27 03:49:27;;;;;;;25.65;3.05;;;;;;;;;;5057898;28;20028;-60
2024/01/27 03:51:53;;;;;;;17.40;2.53;;;;;;;;;;5056580;28;20029;-60
2024/01/27 03:54:19;;;;;;;20.42;2.95;;;;;;;;;;5073888;28;20382;-59
2024/01/27 03:56:45;;;;;;;21.50;2.63;;;;;;;;;;5074306;28;20025;-49
2024/01/27 03:59:11;;;;;;;19.27;2.92;;;;;;;;;;5070746;28;20040;-51
2024/01/27 04:01:37;;;;;;;13.70;3.55;;;;;;;;;;5074134;28;20037;-50
2024/01/27 04:04:03;;;;;;;16.27;3.00;;;;;;;;;;5073463;28;20020;-50
2024/01/27 04:06:29;;;;;;;26.63;3.08;;;;;;;;;;5072813;28;20439;-53
2024/01/27 04:08:55;;;;;;;16.40;3.15;;;;;;;;;;5072143;28;20040;-50
2024/01/27 04:11:21;;;;;;;20.58;2.83;;;;;;;;;;5072443;28;20453;-52
2024/01/27 04:13:49;;;;;;;19.30;3.45;;;;;;;;;;5070286;28;20053;-51
2024/01/27 04:16:15;;;;;;;21.48;2.92;;;;;;;;;;5073169;28;20032;-53
2024/01/27 04:18:42;;;;;;;15.65;2.90;;;;;;;;;;5061360;28;20036;-53
2024/01/27 04:21:08;;;;;;;18.67;3.33;;;;;;;;;;5066175;28;20533;-53
2024/01/27 04:23:34;;;;;;;20.60;3.15;;;;;;;;;;5072594;28;20104;-51
2024/01/27 04:26:00;;;;;;;21.05;2.75;;;;;;;;;;5070321;28;20040;-51
2024/01/27 04:28:26;;;;;;;18.30;2.97;;;;;;;;;;5066917;28;20029;-49
2024/01/27 04:30:52;;;;;;;14.45;2.55;;;;;;;;;;5053842;28;20108;-52
2024/01/27 04:33:18;;;;;;;21.88;3.53;;;;;;;;;;5053143;28;20040;-51
2024/01/27 04:35:44;;;;;;;16.85;2.85;;;;;;;;;;5053530;28;20411;-49
2024/01/27 04:38:10;;;;;;;19.58;2.90;;;;;;;;;;5063148;28;20047;-50
2024/01/27 04:40:36;;;;;;;15.90;3.10;;;;;;;;;;5069492;28;20025;-50
2024/01/27 04:43:02;;;;;;;20.67;3.10;;;;;;;;;;5053186;28;20025;-50
2024/01/27 04:45:28;;;;;;;14.90;2.28;;;;;;;;;;5059389;28;20048;-48
2024/01/27 04:47:54;;;;;;;16.08;3.40;;;;;;;;;;5067422;28;20060;-49
2024/01/27 04:50:21;;;;;;;26.13;3.10;;;;;;;;;;5054586;28;20539;-53
2024/01/27 04:52:47;;;;;;;18.17;3.33;;;;;;;;;;5073022;28;20103;-54
2024/01/27 04:55:13;;;;;;;19.42;3.22;;;;;;;;;;5072741;28;20024;-54
2024/01/27 04:57:39;;;;;;;24.13;2.97;;;;;;;;;;5072330;28;20111;-48
2024/01/27 05:00:07;;;;;;;11.88;2.78;;;;;;;;;;5068325;28;20372;-51
2024/01/27 05:02:33;;;;;;;18.05;3.03;;;;;;;;;;5060647;28;20569;-52
2024/01/27 05:04:59;;;;;;;18.60;2.72;;;;;;;;;;5067519;28;20021;-50
2024/01/27 05:07:25;;;;;;;21.38;2.95;;;;;;;;;;5072187;28;20082;-49
2024/01/27 05:09:51;;;;;;;20.70;3.10;;;;;;;;;;5072232;28;20111;-50
2024/01/27 05:12:17;;;;;;;24.90;3.03;;;;;;;;;;5071194;28;20478;-49
2024/01/27 05:14:46;;;;;;;26.38;3.53;;;;;;;;;;5067970;28;20045;-50
2024/01/27 05:17:12;;;;;;;20.63;3.20;;;;;;;;;;5069522;28;20467;-50
2024/01/27 05:19:38;;;;;;;14.27;2.67;;;;;;;;;;5072356;28;20032;-49
2024/01/27 05:22:04;;;;;;;13.25;2.60;;;;;;;;;;5070607;28;20482;-51
2024/01/27 05:24:30;;;;;;;12.32;2.22;;;;;;;;;;5070808;28;20478;-54
2024/01/27 05:26:56;;;;;;;21.40;3.20;;;;;;;;;;5066242;28;20114;-52
2024/01/27 05:29:22;;;;;;;18.88;2.85;;;;;;;;;;5066123;28;20058;-49
2024/01/27 05:31:49;;;;;;;17.40;3.13;;;;;;;;;;5056093;28;20040;-52
2024/01/27 05:34:15;;;;;;;8.77;2.40;;;;;;;;;;5066186;28;20434;-49
2024/01/27 05:36:41;;;;;;;12.90;2.58;;;;;;;;;;5069935;28;20039;-49
2024/01/27 05:39:08;;;;;;;15.80;2.35;;;;;;;;;;5041174;28;20025;-49
2024/01/27 05:41:34;;;;;;;14.30;2.92;;;;;;;;;;5071718;28;20016;-49
2024/01/27 05:44:00;;;;;;;23.38;3.17;;;;;;;;;;5071253;28;20497;-50
2024/01/27 05:46:26;;;;;;;16.65;2.60;;;;;;;;;;5070236;28;20024;-50
2024/01/27 05:48:53;;;;;;;19.40;3.45;;;;;;;;;;5068555;28;20060;-51
2024/01/27 05:51:23;;;;;;;19.17;2.95;;;;;;;;;;5071046;28;20033;-50
2024/01/27 05:53:49;;;;;;;18.45;2.85;;;;;;;;;;5070710;28;20110;-52
2024/01/27 05:56:17;;;;;;;27.65;3.53;;;;;;;;;;5070897;28;20482;-55
2024/01/27 05:58:43;;;;;;;15.32;2.55;;;;;;;;;;5071336;28;20086;-56
2024/01/27 06:01:09;;;;;;;21.52;3.22;;;;;;;;;;5071516;28;20032;-50
2024/01/27 06:03:35;;;;;;;21.83;3.45;;;;;;;;;;5071412;28;20025;-49
2024/01/27 06:06:01;;;;;;;20.60;3.42;;;;;;;;;;5066238;28;20036;-57
2024/01/27 06:08:27;;;;;;;12.60;2.53;;;;;;;;;;5066571;28;20394;-60
2024/01/27 06:10:53;;;;;;;13.82;2.85;;;;;;;;;;5070793;28;20032;-60
2024/01/27 06:13:19;;;;;;;18.20;3.58;;;;;;;;;;5063361;28;20036;-59
2024/01/27 06:15:45;;;;;;;15.68;3.45;;;;;;;;;;5069969;28;20036;-59
2024/01/27 06:18:11;;;;;;;21.55;3.42;;;;;;;;;;5071260;28;20036;-60
2024/01/27 06:20:37;;;;;;;20.42;2.85;;;;;;;;;;5070653;28;20021;-60
2024/01/27 06:23:03;;;;;;;21.10;2.47;;;;;;;;;;5050708;28;20036;-60
2024/01/27 06:25:29;;;;;;;21.58;3.83;;;;;;;;;;5070897;28;20073;-61
2024/01/27 06:27:55;;;;;;;27.13;3.42;;;;;;;;;;5070670;28;20033;-60
2024/01/27 06:30:21;;;;;;;21.02;3.47;;;;;;;;;;5070658;28;20035;-60
2024/01/27 06:32:47;;;;;;;21.40;2.65;;;;;;;;;;5070726;28;20037;-60
2024/01/27 06:35:13;;;;;;;21.88;3.50;;;;;;;;;;5064087;28;20040;-59
2024/01/27 06:37:39;;;;;;;16.15;2.60;;;;;;;;;;5066631;28;20387;-60
2024/01/27 06:40:06;;;;;;;24.58;3.05;;;;;;;;;;5068677;28;20490;-60
2024/01/27 06:42:32;;;;;;;23.83;2.92;;;;;;;;;;5070930;28;20486;-61
2024/01/27 06:44:58;;;;;;;17.42;3.08;;;;;;;;;;5069337;28;20032;-59
2024/01/27 06:47:24;;;;;;;21.98;3.67;;;;;;;;;;5070877;28;20048;-60
2024/01/27 06:49:49;;;;;;;14.52;3.15;;;;;;;;;;5068039;28;20099;-59
2024/01/27 06:52:15;;;;;;;20.92;3.97;;;;;;;;;;5062920;28;20725;-60
2024/01/27 06:54:43;;;;;;;15.68;3.33;;;;;;;;;;5069994;28;20445;-60
2024/01/27 06:57:18;;;;;;;19.13;2.80;;;;;;;;;;5068512;28;20501;-60
2024/01/27 06:59:44;;;;;;;19.27;2.55;;;;;;;;;;5067681;28;20543;-60
2024/01/27 07:02:13;;;;;;;14.60;2.78;;;;;;;;;;5062601;28;20490;-59
2024/01/27 07:04:39;;;;;;;21.77;3.35;;;;;;;;;;5066084;28;20024;-59
2024/01/27 07:07:06;;;;;;;18.33;3.47;;;;;;;;;;5072053;28;20082;-60
2024/01/27 07:09:31;;;;;;;18.55;3.33;;;;;;;;;;5067386;28;20431;-60
2024/01/27 07:11:57;;;;;;;12.63;3.40;;;;;;;;;;5064690;28;20040;-58
2024/01/27 07:14:23;;;;;;;21.02;3.92;;;;;;;;;;5071723;28;20118;-60
2024/01/27 07:16:49;;;;;;;13.02;2.47;;;;;;;;;;5071206;28;20035;-53
2024/01/27 07:19:16;;;;;;;16.63;3.15;;;;;;;;;;5067549;28;20466;-52
2024/01/27 07:21:42;;;;;;;23.10;3.00;;;;;;;;;;5066050;28;20074;-52
2024/01/27 07:24:08;;;;;;;18.73;3.50;;;;;;;;;;5070547;28;20224;-50
2024/01/27 07:26:34;;;;;;;18.10;2.97;;;;;;;;;;5075513;28;20031;-53
2024/01/27 07:29:00;;;;;;;16.58;2.75;;;;;;;;;;5073393;28;20024;-48
2024/01/27 07:31:26;;;;;;;18.30;3.70;;;;;;;;;;5072178;28;20402;-52
2024/01/27 07:33:52;;;;;;;18.40;2.78;;;;;;;;;;5066850;28;20043;-49
2024/01/27 07:36:18;;;;;;;16.40;3.05;;;;;;;;;;5049221;28;20025;-52
2024/01/27 07:38:44;;;;;;;12.00;2.85;;;;;;;;;;5071545;28;20044;-52
2024/01/27 07:41:10;;;;;;;16.08;2.72;;;;;;;;;;5063089;28;20017;-55
2024/01/27 07:43:36;;;;;;;19.67;3.00;;;;;;;;;;5068445;28;20503;-52
2024/01/27 07:46:02;;;;;;;19.52;3.20;;;;;;;;;;5073072;28;20024;-52
2024/01/27 07:48:28;;;;;;;18.88;3.53;;;;;;;;;;5072455;28;20127;-50
2024/01/27 07:50:56;;;;;;;18.38;3.28;;;;;;;;;;5062770;28;20047;-50
2024/01/27 07:53:22;;;;;;;21.85;3.40;;;;;;;;;;5064655;28;20060;-51
2024/01/27 07:55:48;;;;;;;19.73;3.30;;;;;;;;;;5072585;28;20078;-53
2024/01/27 07:58:14;;;;;;;24.10;3.58;;;;;;;;;;5063874;28;20037;-52
2024/01/27 08:00:40;;;;;;;17.38;2.70;;;;;;;;;;5068393;28;20024;-53
2024/01/27 08:03:06;;;;;;;17.42;2.40;;;;;;;;;;5073249;28;20090;-51
2024/01/27 08:05:32;;;;;;;15.35;2.75;;;;;;;;;;5072884;28;20024;-53
2024/01/27 08:07:58;;;;;;;18.20;3.10;;;;;;;;;;5065031;28;20031;-54
2024/01/27 08:10:23;;;;;;;23.13;3.40;;;;;;;;;;5069751;28;20040;-50
2024/01/27 08:12:49;;;;;;;17.25;2.65;;;;;;;;;;5071941;28;20394;-53
2024/01/27 08:15:15;;;;;;;17.40;3.60;;;;;;;;;;5067685;28;20121;-55
2024/01/27 08:17:42;;;;;;;22.15;2.97;;;;;;;;;;5060404;28;20049;-52
2024/01/27 08:20:08;;;;;;;13.23;2.63;;;;;;;;;;5071452;28;20597;-52
2024/01/27 08:22:34;;;;;;;17.27;2.75;;;;;;;;;;5071071;28;20063;-51
2024/01/27 08:25:00;;;;;;;18.25;3.25;;;;;;;;;;5070326;28;20043;-49
2024/01/27 08:27:26;;;;;;;12.63;2.08;;;;;;;;;;5071520;28;20374;-48
2024/01/27 08:29:52;;;;;;;14.77;2.70;;;;;;;;;;5071773;28;20074;-48
2024/01/27 08:32:19;;;;;;;22.52;3.22;;;;;;;;;;5061445;28;20021;-49
2024/01/27 08:34:45;;;;;;;27.60;2.72;;;;;;;;;;5067421;28;20471;-50
2024/01/27 08:37:16;;;;;;;27.70;3.47;;;;;;;;;;5059352;28;20056;-60
2024/01/27 08:39:42;;;;;;;20.90;3.05;;;;;;;;;;5071927;28;20100;-57
2024/01/27 08:42:08;;;;;;;13.25;3.30;;;;;;;;;;5071539;28;20107;-60
2024/01/27 08:44:34;;;;;;;18.20;2.65;;;;;;;;;;5071471;28;20419;-59
2024/01/27 08:47:00;;;;;;;15.55;2.83;;;;;;;;;;5071884;28;20028;-60
2024/01/27 08:49:26;;;;;;;15.80;3.67;;;;;;;;;;5072177;28;20017;-60
2024/01/27 08:51:52;;;;;;;13.82;2.88;;;;;;;;;;5063390;28;20103;-59
2024/01/27 08:54:18;;;;;;;17.00;3.30;;;;;;;;;;5070895;28;20050;-59
2024/01/27 08:56:44;;;;;;;16.33;2.72;;;;;;;;;;5049897;28;20043;-59
2024/01/27 08:59:10;;;;;;;21.35;2.80;;;;;;;;;;5069338;28;20032;-60
2024/01/27 09:01:36;;;;;;;18.23;3.00;;;;;;;;;;5063589;28;20067;-60
2024/01/27 09:04:02;;;;;;;17.77;2.35;;;;;;;;;;5069083;28;20032;-65
2024/01/27 09:06:28;;;;;;;16.70;3.60;;;;;;;;;;5062232;28;20032;-66
2024/01/27 09:08:54;;;;;;;22.15;2.65;;;;;;;;;;5069800;28;20167;-66
2024/01/27 09:11:21;;;;;;;11.23;2.60;;;;;;;;;;5068058;28;20017;-66
2024/01/27 09:13:48;;;;;;;25.83;3.58;;;;;;;;;;5060642;28;20045;-66
2024/01/27 09:16:14;;;;;;;22.17;3.30;;;;;;;;;;5065118;28;20036;-66
2024/01/27 09:18:40;;;;;;;18.13;3.22;;;;;;;;;;5065091;28;20075;-66
2024/01/27 09:21:07;;;;;;;21.90;3.10;;;;;;;;;;5051839;28;20395;-66
2024/01/27 09:23:32;;;;;;;12.65;2.20;;;;;;;;;;5068281;28;20162;-65
2024/01/27 09:25:58;;;;;;;13.38;2.75;;;;;;;;;;5070512;28;20025;-67
2024/01/27 09:28:24;;;;;;;22.30;3.47;;;;;;;;;;5069315;28;20043;-66
2024/01/27 09:30:50;;;;;;;13.15;2.67;;;;;;;;;;5071705;28;20021;-66
2024/01/27 09:33:19;;;;;;;19.10;3.00;;;;;;;;;;5069984;28;20020;-63
2024/01/27 09:35:45;;;;;;;16.55;2.47;;;;;;;;;;5071608;28;20056;-59
2024/01/27 09:38:12;;;;;;;12.23;2.17;;;;;;;;;;5068497;28;20060;-59
2024/01/27 09:40:38;;;;;;;18.73;2.90;;;;;;;;;;5070019;28;20178;-59
2024/01/27 09:43:04;;;;;;;20.70;2.60;;;;;;;;;;5069489;28;20049;-60
2024/01/27 09:45:30;;;;;;;17.65;3.10;;;;;;;;;;5070425;28;20044;-60
2024/01/27 09:48:00;;;;;;;22.13;2.72;;;;;;;;;;5070370;28;20094;-58
2024/01/27 09:50:26;;;;;;;25.30;3.17;;;;;;;;;;5071378;28;20051;-58
2024/01/27 09:52:53;;;;;;;17.27;2.85;;;;;;;;;;5049761;28;20028;-58
2024/01/27 09:55:19;;;;;;;17.17;2.95;;;;;;;;;;5051956;28;20020;-58
2024/01/27 09:57:46;;;;;;;13.68;2.92;;;;;;;;;;5071075;28;20390;-58
2024/01/27 10:00:12;;;;;;;21.98;3.55;;;;;;;;;;5067632;28;20103;-58
2024/01/27 10:02:41;;;;;;;11.90;2.45;;;;;;;;;;5048280;28;20385;-58
2024/01/27 10:05:09;;;;;;;19.23;2.85;;;;;;;;;;5070887;28;20091;-58
2024/01/27 10:07:34;;;;;;;11.02;3.05;;;;;;;;;;5052430;28;20436;-58
2024/01/27 10:10:01;;;;;;;19.95;3.30;;;;;;;;;;5064625;28;20044;-60
2024/01/27 10:12:29;;;;;;;13.00;2.75;;;;;;;;;;5062232;28;20445;-62
2024/01/27 10:14:55;;;;;;;20.80;3.30;;;;;;;;;;5063110;28;20048;-60
2024/01/27 10:17:32;;;;;;;20.55;3.20;;;;;;;;;;5060323;28;20086;-58
2024/01/27 10:20:05;;;;;;;20.67;3.28;;;;;;;;;;5066393;28;20021;-58
2024/01/27 10:22:40;;;;;;;18.52;2.78;;;;;;;;;;5067357;28;20016;-58
2024/01/27 10:25:07;;;;;;;19.40;3.80;;;;;;;;;;5067598;28;20013;-59
2024/01/27 10:27:32;;;;;;;11.98;2.53;;;;;;;;;;5055635;28;20032;-58
2024/01/27 10:29:58;;;;;;;21.27;2.78;;;;;;;;;;5068663;28;20112;-58
2024/01/27 10:32:24;;;;;;;15.02;3.28;;;;;;;;;;5070544;28;20039;-59
2024/01/27 10:35:01;;;;;;;15.15;3.17;;;;;;;;;;5070139;28;20052;-60
2024/01/27 10:37:27;;;;;;;16.45;2.80;;;;;;;;;;5070024;28;20028;-59
2024/01/27 10:40:00;;;;;;;16.20;2.38;;;;;;;;;;5070288;28;20029;-58
2024/01/27 10:42:26;;;;;;;15.10;3.53;;;;;;;;;;5067685;28;20492;-60
2024/01/27 10:44:53;;;;;;;19.38;3.28;;;;;;;;;;5066733;28;20118;-58
2024/01/27 10:47:20;;;;;;;23.50;4.45;;;;;;;;;;5050723;28;20033;-66
2024/01/27 10:49:48;;;;;;;13.30;3.28;;;;;;;;;;5071768;28;20037;-67
2024/01/27 10:52:16;;;;;;;11.48;2.70;;;;;;;;;;5074423;28;20043;-66
2024/01/27 10:54:42;;;;;;;19.27;3.25;;;;;;;;;;5046626;28;20043;-66
2024/01/27 10:57:10;;;;;;;22.25;3.13;;;;;;;;;;5061740;28;20109;-61
2024/01/27 10:59:36;;;;;;;18.27;3.45;;;;;;;;;;5070523;28;20029;-61
2024/01/27 11:02:04;;;;;;;18.17;3.13;;;;;;;;;;5052745;28;20032;-61
2024/01/27 11:04:32;;;;;;;22.88;3.10;;;;;;;;;;5065521;28;20066;-61
2024/01/27 11:06:59;;;;;;;12.85;2.67;;;;;;;;;;5058727;28;20070;-62
2024/01/27 11:09:25;;;;;;;12.68;2.78;;;;;;;;;;5064517;28;20544;-61
2024/01/27 11:11:51;;;;;;;14.63;2.72;;;;;;;;;;5067267;28;20037;-61
2024/01/27 11:14:17;;;;;;;13.63;2.42;;;;;;;;;;5070912;28;20040;-62
2024/01/27 11:16:45;;;;;;;23.83;4.45;;;;;;;;;;5071805;28;20127;-62
2024/01/27 11:19:14;;;;;;;15.85;2.70;;;;;;;;;;5052830;28;20032;-62
2024/01/27 11:21:40;;;;;;;23.80;2.85;;;;;;;;;;5062129;28;20024;-62
2024/01/27 11:24:18;;;;;;;18.15;3.05;;;;;;;;;;5070636;28;20456;-61
2024/01/27 11:26:45;;;;;;;20.23;3.22;;;;;;;;;;5062222;28;20107;-62
2024/01/27 11:29:19;;;;;;;13.57;2.80;;;;;;;;;;5073720;28;20032;-62
2024/01/27 11:31:45;;;;;;;17.08;2.85;;;;;;;;;;5074150;28;20016;-62
2024/01/27 11:34:19;;;;;;;25.00;3.10;;;;;;;;;;5072416;28;20449;-62
2024/01/27 11:36:45;;;;;;;10.05;3.10;;;;;;;;;;5071503;28;20486;-62
2024/01/27 11:39:28;;;;;;;14.10;3.30;;;;;;;;;;5068695;28;20090;-62
2024/01/27 11:41:54;;;;;;;20.88;2.65;;;;;;;;;;5060352;28;20029;-62
2024/01/27 11:44:20;;;;;;;11.68;3.40;;;;;;;;;;5050731;28;20032;-62
2024/01/27 11:46:46;;;;;;;24.38;3.42;;;;;;;;;;5072596;28;20086;-62
2024/01/27 11:49:17;;;;;;;17.10;2.95;;;;;;;;;;5073376;28;20107;-62
2024/01/27 11:51:43;;;;;;;12.85;3.05;;;;;;;;;;5072787;28;20082;-62
2024/01/27 11:54:09;;;;;;;13.93;2.90;;;;;;;;;;5070578;28;20042;-62
2024/01/27 11:56:34;;;;;;;15.30;2.88;;;;;;;;;;5072408;28;20029;-62
2024/01/27 11:59:01;;;;;;;18.48;3.15;;;;;;;;;;5058258;28;20544;-63
2024/01/27 12:01:26;;;;;;;19.38;2.70;;;;;;;;;;5073449;28;20052;-63
2024/01/27 12:03:52;;;;;;;9.60;2.60;;;;;;;;;;5065024;28;20102;-62
2024/01/27 12:06:18;;;;;;;16.75;2.92;;;;;;;;;;5073485;28;20024;-60
2024/01/27 12:08:48;;;;;;;14.25;2.78;;;;;;;;;;5062593;28;20481;-60
2024/01/27 12:11:14;;;;;;;15.48;2.63;;;;;;;;;;5072615;28;20054;-60
2024/01/27 12:13:41;;;;;;;14.80;2.65;;;;;;;;;;5070431;28;20044;-60
2024/01/27 12:16:07;;;;;;;11.27;3.47;;;;;;;;;;5073214;28;20033;-59
2024/01/27 12:18:33;;;;;;;9.68;2.97;;;;;;;;;;5072230;28;20047;-61
2024/01/27 12:20:59;;;;;;;11.88;2.92;;;;;;;;;;5073100;28;20449;-60
2024/01/27 12:23:25;;;;;;;9.57;2.50;;;;;;;;;;5063146;28;20024;-61
2024/01/27 12:25:57;;;;;;;15.00;2.90;;;;;;;;;;5072113;28;20035;-60
2024/01/27 12:28:24;;;;;;;18.77;3.13;;;;;;;;;;5070944;28;20482;-61
2024/01/27 12:30:53;;;;;;;13.38;2.85;;;;;;;;;;5072375;28;20039;-60
2024/01/27 12:33:24;;;;;;;20.17;3.67;;;;;;;;;;5069827;28;20515;-60
2024/01/27 12:35:50;;;;;;;15.00;3.25;;;;;;;;;;5062066;28;20039;-60
2024/01/27 12:38:18;;;;;;;17.02;3.72;;;;;;;;;;5071350;28;20025;-60
2024/01/27 12:40:44;;;;;;;20.13;3.30;;;;;;;;;;5071052;28;20047;-60
2024/01/27 12:43:10;;;;;;;16.05;3.05;;;;;;;;;;5067255;28;20029;-61
2024/01/27 12:45:37;;;;;;;14.80;3.97;;;;;;;;;;5066114;28;20106;-60
2024/01/27 12:48:05;;;;;;;15.27;2.28;;;;;;;;;;5062040;28;20036;-61
2024/01/27 12:50:32;;;;;;;16.58;2.80;;;;;;;;;;5071964;28;20181;-61
2024/01/27 12:52:58;;;;;;;16.38;3.08;;;;;;;;;;5072391;28;20017;-61
2024/01/27 12:55:24;;;;;;;10.05;2.72;;;;;;;;;;5067003;28;20028;-61
2024/01/27 12:57:50;;;;;;;12.90;2.80;;;;;;;;;;5069493;28;20032;-60
2024/01/27 13:00:16;;;;;;;12.68;2.60;;;;;;;;;;5065964;28;20043;-61
2024/01/27 13:02:43;;;;;;;13.20;2.65;;;;;;;;;;5059152;28;20017;-61
2024/01/27 13:05:09;;;;;;;13.95;2.75;;;;;;;;;;5071542;28;20024;-61
2024/01/27 13:07:35;;;;;;;11.20;2.05;;;;;;;;;;5071091;28;20037;-61
2024/01/27 13:10:01;;;;;;;11.75;2.03;;;;;;;;;;5066256;28;20036;-61
2024/01/27 13:12:27;;;;;;;14.85;2.80;;;;;;;;;;5064587;28;20559;-61
2024/01/27 13:14:55;;;;;;;15.80;2.65;;;;;;;;;;5064618;28;20041;-61
2024/01/27 13:17:21;;;;;;;12.45;2.38;;;;;;;;;;5061468;28;20036;-59
2024/01/27 13:19:47;;;;;;;17.73;3.28;;;;;;;;;;5067902;28;20033;-60
2024/01/27 13:22:13;;;;;;;10.93;2.05;;;;;;;;;;5069128;28;20036;-60
2024/01/27 13:24:39;;;;;;;12.57;2.70;;;;;;;;;;5071500;28;20103;-60
2024/01/27 13:27:05;;;;;;;12.55;2.55;;;;;;;;;;5070477;28;20323;-59
2024/01/27 13:29:32;;;;;;;13.15;2.30;;;;;;;;;;5071663;28;20024;-59
2024/01/27 13:32:01;;;;;;;13.63;2.13;;;;;;;;;;5071227;28;20059;-60
2024/01/27 13:34:27;;;;;;;16.92;2.30;;;;;;;;;;5069360;28;20379;-59
2024/01/27 13:36:53;;;;;;;16.35;2.83;;;;;;;;;;5068703;28;20090;-61
2024/01/27 13:39:19;;;;;;;12.75;2.70;;;;;;;;;;5070255;28;20033;-59
2024/01/27 13:41:45;;;;;;;9.98;2.20;;;;;;;;;;5070187;28;20031;-60
2024/01/27 13:44:11;;;;;;;7.18;1.90;;;;;;;;;;5068587;28;20402;-60
2024/01/27 13:46:38;;;;;;;10.98;2.22;;;;;;;;;;5064485;28;20098;-59
2024/01/27 13:49:04;;;;;;;12.15;2.45;;;;;;;;;;5066093;28;20051;-59
2024/01/27 13:51:30;;;;;;;16.13;2.22;;;;;;;;;;5066634;28;20040;-60
2024/01/27 13:53:56;;;;;;;16.00;2.50;;;;;;;;;;5063238;28;20028;-60
2024/01/27 13:56:22;;;;;;;16.33;1.92;;;;;;;;;;5067864;28;20047;-60
2024/01/27 13:58:48;;;;;;;11.38;2.85;;;;;;;;;;5070440;28;20032;-60
2024/01/27 14:01:14;;;;;;;15.38;1.90;;;;;;;;;;5068460;28;20032;-60
2024/01/27 14:03:40;;;;;;;12.25;2.53;;;;;;;;;;5066818;28;20031;-61
2024/01/27 14:06:07;;;;;;;11.32;1.80;;;;;;;;;;5064152;28;20406;-61
2024/01/27 14:08:33;;;;;;;11.75;2.10;;;;;;;;;;5060170;28;20017;-60
2024/01/27 14:10:59;;;;;;;11.52;2.97;;;;;;;;;;5055982;28;20021;-60
2024/01/27 14:13:25;;;;;;;11.75;2.75;;;;;;;;;;5067342;28;20066;-60
2024/01/27 14:15:51;;;;;;;9.82;2.08;;;;;;;;;;5069947;28;20020;-60
2024/01/27 14:18:20;;;;;;;13.75;2.22;;;;;;;;;;5051655;28;20032;-59
2024/01/27 14:20:46;;;;;;;9.35;1.92;;;;;;;;;;5068870;28;20071;-59
2024/01/27 14:23:12;;;;;;;10.48;1.90;;;;;;;;;;5058931;28;20021;-60
2024/01/27 14:25:38;;;;;;;6.13;1.42;;;;;;;;;;5063718;28;20062;-61